LFBH

La Rochelle-Île de Ré Airport

Airport
ICAO code
LFBH
IATA Code
LRH
Summary
ICAO Region
EUR
ICAO Territory
Location

, Poitou-Charentes

Serving
La Rochelle
Elevation
74 ft
Coordinates
46° 10' 45" N , 1° 11' 43" W
Metar
LFBH 260200Z AUTO 26008KT 8000 RA FEW013/// BKN056/// BKN068/// ///TCU 10/09 Q0988 TEMPO 4000 -SHRA BKN012 BKN018CB

Runways

Designator Length Width Surface Rops
10/28 2255 45 ASP No/No

Airport map

Aerial View

SKYbrary Partners:

Safety knowledge contributed by: